sensor_id;sensor_type;location;lat;lon;timestamp;P1;durP1;ratioP1;P2;durP2;ratioP2
12218;SDS011;6172;42.646;23.344;2023-08-01T00:00:02;1.90;;;1.08;;
12218;SDS011;6172;42.646;23.344;2023-08-01T00:02:33;1.83;;;1.00;;
12218;SDS011;6172;42.646;23.344;2023-08-01T00:05:00;2.78;;;1.02;;
12218;SDS011;6172;42.646;23.344;2023-08-01T00:07:28;1.20;;;0.82;;
12218;SDS011;6172;42.646;23.344;2023-08-01T00:09:55;1.27;;;0.85;;
12218;SDS011;6172;42.646;23.344;2023-08-01T00:12:23;1.67;;;0.85;;
12218;SDS011;6172;42.646;23.344;2023-08-01T00:14:50;1.08;;;0.98;;
12218;SDS011;6172;42.646;23.344;2023-08-01T00:17:17;1.00;;;1.00;;
12218;SDS011;6172;42.646;23.344;2023-08-01T00:19:47;1.10;;;1.00;;
12218;SDS011;6172;42.646;23.344;2023-08-01T00:22:14;0.70;;;0.70;;
12218;SDS011;6172;42.646;23.344;2023-08-01T00:24:41;1.60;;;1.00;;
12218;SDS011;6172;42.646;23.344;2023-08-01T00:27:08;1.52;;;1.17;;
12218;SDS011;6172;42.646;23.344;2023-08-01T00:29:35;1.85;;;1.13;;
12218;SDS011;6172;42.646;23.344;2023-08-01T00:32:03;1.52;;;1.08;;
12218;SDS011;6172;42.646;23.344;2023-08-01T00:34:30;1.10;;;1.00;;
12218;SDS011;6172;42.646;23.344;2023-08-01T00:36:58;1.65;;;1.20;;
12218;SDS011;6172;42.646;23.344;2023-08-01T00:39:25;0.93;;;0.88;;
12218;SDS011;6172;42.646;23.344;2023-08-01T00:41:52;1.80;;;1.10;;
12218;SDS011;6172;42.646;23.344;2023-08-01T00:44:18;2.00;;;1.05;;
12218;SDS011;6172;42.646;23.344;2023-08-01T00:46:45;2.00;;;1.05;;
12218;SDS011;6172;42.646;23.344;2023-08-01T00:49:12;2.15;;;0.85;;
12218;SDS011;6172;42.646;23.344;2023-08-01T00:51:40;1.60;;;1.05;;
12218;SDS011;6172;42.646;23.344;2023-08-01T00:54:09;1.35;;;1.00;;
12218;SDS011;6172;42.646;23.344;2023-08-01T00:56:36;1.00;;;0.90;;
12218;SDS011;6172;42.646;23.344;2023-08-01T00:59:03;1.25;;;1.02;;
12218;SDS011;6172;42.646;23.344;2023-08-01T01:01:30;3.63;;;1.05;;
12218;SDS011;6172;42.646;23.344;2023-08-01T01:03:56;1.13;;;0.98;;
12218;SDS011;6172;42.646;23.344;2023-08-01T01:06:24;1.00;;;0.90;;
12218;SDS011;6172;42.646;23.344;2023-08-01T01:08:54;0.90;;;0.90;;
12218;SDS011;6172;42.646;23.344;2023-08-01T01:11:23;1.95;;;0.90;;
12218;SDS011;6172;42.646;23.344;2023-08-01T01:13:49;1.10;;;1.00;;
12218;SDS011;6172;42.646;23.344;2023-08-01T01:16:18;1.05;;;0.90;;
12218;SDS011;6172;42.646;23.344;2023-08-01T01:18:45;1.27;;;0.77;;
12218;SDS011;6172;42.646;23.344;2023-08-01T01:21:13;1.30;;;0.98;;
12218;SDS011;6172;42.646;23.344;2023-08-01T01:23:40;0.75;;;0.75;;
12218;SDS011;6172;42.646;23.344;2023-08-01T01:26:08;0.90;;;0.75;;
12218;SDS011;6172;42.646;23.344;2023-08-01T01:28:36;2.50;;;0.85;;
12218;SDS011;6172;42.646;23.344;2023-08-01T01:31:04;3.40;;;0.93;;
12218;SDS011;6172;42.646;23.344;2023-08-01T01:33:31;0.90;;;0.90;;
12218;SDS011;6172;42.646;23.344;2023-08-01T01:36:00;0.88;;;0.80;;
12218;SDS011;6172;42.646;23.344;2023-08-01T01:38:29;1.30;;;1.20;;
12218;SDS011;6172;42.646;23.344;2023-08-01T01:40:56;1.08;;;1.00;;
12218;SDS011;6172;42.646;23.344;2023-08-01T01:43:22;1.50;;;1.30;;
12218;SDS011;6172;42.646;23.344;2023-08-01T01:45:49;1.20;;;1.00;;
12218;SDS011;6172;42.646;23.344;2023-08-01T01:48:16;2.03;;;1.15;;
12218;SDS011;6172;42.646;23.344;2023-08-01T01:50:43;1.10;;;1.10;;
12218;SDS011;6172;42.646;23.344;2023-08-01T01:53:10;1.20;;;1.10;;
12218;SDS011;6172;42.646;23.344;2023-08-01T01:55:38;2.80;;;1.08;;
12218;SDS011;6172;42.646;23.344;2023-08-01T01:58:06;1.00;;;1.00;;
12218;SDS011;6172;42.646;23.344;2023-08-01T02:00:33;1.40;;;1.00;;
12218;SDS011;6172;42.646;23.344;2023-08-01T02:02:59;1.20;;;1.10;;
12218;SDS011;6172;42.646;23.344;2023-08-01T02:05:27;1.60;;;0.88;;
12218;SDS011;6172;42.646;23.344;2023-08-01T02:07:54;2.25;;;1.33;;
12218;SDS011;6172;42.646;23.344;2023-08-01T02:10:21;1.10;;;1.00;;
12218;SDS011;6172;42.646;23.344;2023-08-01T02:12:50;1.13;;;1.02;;
12218;SDS011;6172;42.646;23.344;2023-08-01T02:15:16;1.50;;;1.27;;
12218;SDS011;6172;42.646;23.344;2023-08-01T02:17:43;1.58;;;1.05;;
12218;SDS011;6172;42.646;23.344;2023-08-01T02:20:10;2.75;;;1.00;;
12218;SDS011;6172;42.646;23.344;2023-08-01T02:22:37;1.27;;;1.02;;
12218;SDS011;6172;42.646;23.344;2023-08-01T02:25:04;1.38;;;1.13;;
12218;SDS011;6172;42.646;23.344;2023-08-01T02:27:32;1.38;;;1.10;;
12218;SDS011;6172;42.646;23.344;2023-08-01T02:30:00;3.20;;;1.25;;
12218;SDS011;6172;42.646;23.344;2023-08-01T02:32:27;1.27;;;0.85;;
12218;SDS011;6172;42.646;23.344;2023-08-01T02:34:54;1.33;;;1.20;;
12218;SDS011;6172;42.646;23.344;2023-08-01T02:37:21;1.05;;;0.95;;
12218;SDS011;6172;42.646;23.344;2023-08-01T02:39:49;1.35;;;1.25;;
12218;SDS011;6172;42.646;23.344;2023-08-01T02:42:16;3.08;;;0.90;;
12218;SDS011;6172;42.646;23.344;2023-08-01T02:44:42;4.00;;;1.10;;
12218;SDS011;6172;42.646;23.344;2023-08-01T02:47:11;1.58;;;0.93;;
12218;SDS011;6172;42.646;23.344;2023-08-01T02:49:38;2.38;;;1.15;;
12218;SDS011;6172;42.646;23.344;2023-08-01T02:52:05;1.00;;;0.95;;
12218;SDS011;6172;42.646;23.344;2023-08-01T02:54:32;2.75;;;1.15;;
12218;SDS011;6172;42.646;23.344;2023-08-01T02:56:59;1.95;;;1.00;;
12218;SDS011;6172;42.646;23.344;2023-08-01T02:59:25;1.40;;;1.23;;
12218;SDS011;6172;42.646;23.344;2023-08-01T03:01:52;2.08;;;1.30;;
12218;SDS011;6172;42.646;23.344;2023-08-01T03:04:21;3.47;;;1.17;;
12218;SDS011;6172;42.646;23.344;2023-08-01T03:06:49;2.58;;;0.88;;
12218;SDS011;6172;42.646;23.344;2023-08-01T03:09:16;1.25;;;0.90;;
12218;SDS011;6172;42.646;23.344;2023-08-01T03:11:43;1.30;;;1.02;;
12218;SDS011;6172;42.646;23.344;2023-08-01T03:14:10;1.60;;;1.17;;
12218;SDS011;6172;42.646;23.344;2023-08-01T03:16:37;2.00;;;1.05;;
12218;SDS011;6172;42.646;23.344;2023-08-01T03:19:03;1.40;;;1.30;;
12218;SDS011;6172;42.646;23.344;2023-08-01T03:21:32;1.42;;;1.33;;
12218;SDS011;6172;42.646;23.344;2023-08-01T03:24:00;2.55;;;1.17;;
12218;SDS011;6172;42.646;23.344;2023-08-01T03:26:27;1.48;;;1.20;;
12218;SDS011;6172;42.646;23.344;2023-08-01T03:28:57;2.50;;;1.20;;
12218;SDS011;6172;42.646;23.344;2023-08-01T03:31:24;2.13;;;0.98;;
12218;SDS011;6172;42.646;23.344;2023-08-01T03:33:51;3.80;;;1.20;;
12218;SDS011;6172;42.646;23.344;2023-08-01T03:36:18;2.20;;;1.20;;
12218;SDS011;6172;42.646;23.344;2023-08-01T03:38:46;3.95;;;1.45;;
12218;SDS011;6172;42.646;23.344;2023-08-01T03:41:13;3.30;;;1.17;;
12218;SDS011;6172;42.646;23.344;2023-08-01T03:43:40;1.88;;;1.33;;
12218;SDS011;6172;42.646;23.344;2023-08-01T03:46:07;3.03;;;1.55;;
12218;SDS011;6172;42.646;23.344;2023-08-01T03:48:34;1.88;;;1.45;;
12218;SDS011;6172;42.646;23.344;2023-08-01T03:51:01;3.75;;;2.40;;
12218;SDS011;6172;42.646;23.344;2023-08-01T03:53:29;6.50;;;4.38;;
12218;SDS011;6172;42.646;23.344;2023-08-01T03:55:57;9.25;;;4.18;;
12218;SDS011;6172;42.646;23.344;2023-08-01T03:58:24;5.93;;;3.80;;
12218;SDS011;6172;42.646;23.344;2023-08-01T04:00:51;5.13;;;4.28;;
12218;SDS011;6172;42.646;23.344;2023-08-01T04:03:18;6.72;;;5.05;;
12218;SDS011;6172;42.646;23.344;2023-08-01T04:05:46;5.25;;;4.75;;
12218;SDS011;6172;42.646;23.344;2023-08-01T04:08:13;6.38;;;5.25;;
12218;SDS011;6172;42.646;23.344;2023-08-01T04:10:40;6.03;;;5.03;;
12218;SDS011;6172;42.646;23.344;2023-08-01T04:13:08;5.20;;;4.75;;
12218;SDS011;6172;42.646;23.344;2023-08-01T04:15:35;5.18;;;4.45;;
12218;SDS011;6172;42.646;23.344;2023-08-01T04:18:02;6.37;;;5.17;;
12218;SDS011;6172;42.646;23.344;2023-08-01T04:20:29;5.33;;;4.83;;
12218;SDS011;6172;42.646;23.344;2023-08-01T04:22:56;6.85;;;5.65;;
12218;SDS011;6172;42.646;23.344;2023-08-01T04:25:22;6.25;;;5.65;;
12218;SDS011;6172;42.646;23.344;2023-08-01T04:27:50;7.53;;;4.90;;
12218;SDS011;6172;42.646;23.344;2023-08-01T04:30:18;6.23;;;4.97;;
12218;SDS011;6172;42.646;23.344;2023-08-01T04:32:45;9.83;;;5.63;;
12218;SDS011;6172;42.646;23.344;2023-08-01T04:35:12;7.20;;;5.63;;
12218;SDS011;6172;42.646;23.344;2023-08-01T04:37:39;6.30;;;4.80;;
12218;SDS011;6172;42.646;23.344;2023-08-01T04:40:23;5.65;;;5.15;;
12218;SDS011;6172;42.646;23.344;2023-08-01T04:42:50;6.25;;;5.20;;
12218;SDS011;6172;42.646;23.344;2023-08-01T04:48:00;7.63;;;4.25;;
12218;SDS011;6172;42.646;23.344;2023-08-01T04:50:26;6.30;;;4.65;;
12218;SDS011;6172;42.646;23.344;2023-08-01T04:52:53;4.13;;;3.63;;
12218;SDS011;6172;42.646;23.344;2023-08-01T04:55:20;4.93;;;3.83;;
12218;SDS011;6172;42.646;23.344;2023-08-01T04:57:47;4.32;;;3.85;;
12218;SDS011;6172;42.646;23.344;2023-08-01T05:00:14;4.30;;;3.90;;
12218;SDS011;6172;42.646;23.344;2023-08-01T05:02:42;6.20;;;3.58;;
12218;SDS011;6172;42.646;23.344;2023-08-01T05:05:09;5.57;;;3.38;;
12218;SDS011;6172;42.646;23.344;2023-08-01T05:07:36;6.65;;;3.75;;
12218;SDS011;6172;42.646;23.344;2023-08-01T05:10:06;4.32;;;3.90;;
12218;SDS011;6172;42.646;23.344;2023-08-01T05:12:36;4.85;;;2.97;;
12218;SDS011;6172;42.646;23.344;2023-08-01T05:15:03;3.22;;;2.92;;
12218;SDS011;6172;42.646;23.344;2023-08-01T05:17:30;3.72;;;3.30;;
12218;SDS011;6172;42.646;23.344;2023-08-01T05:19:58;6.32;;;3.80;;
12218;SDS011;6172;42.646;23.344;2023-08-01T05:22:25;4.88;;;3.35;;
12218;SDS011;6172;42.646;23.344;2023-08-01T05:24:52;4.47;;;3.03;;
12218;SDS011;6172;42.646;23.344;2023-08-01T05:27:19;3.67;;;3.20;;
12218;SDS011;6172;42.646;23.344;2023-08-01T05:29:46;4.32;;;3.92;;
12218;SDS011;6172;42.646;23.344;2023-08-01T05:32:13;4.10;;;3.22;;
12218;SDS011;6172;42.646;23.344;2023-08-01T05:34:40;4.70;;;3.20;;
12218;SDS011;6172;42.646;23.344;2023-08-01T05:37:08;4.18;;;3.70;;
12218;SDS011;6172;42.646;23.344;2023-08-01T05:39:35;7.88;;;3.30;;
12218;SDS011;6172;42.646;23.344;2023-08-01T05:42:02;4.53;;;2.90;;
12218;SDS011;6172;42.646;23.344;2023-08-01T05:44:33;4.40;;;3.50;;
12218;SDS011;6172;42.646;23.344;2023-08-01T05:47:00;4.60;;;3.22;;
12218;SDS011;6172;42.646;23.344;2023-08-01T05:49:27;4.15;;;2.67;;
12218;SDS011;6172;42.646;23.344;2023-08-01T05:51:54;3.88;;;2.90;;
12218;SDS011;6172;42.646;23.344;2023-08-01T05:54:23;6.10;;;2.50;;
12218;SDS011;6172;42.646;23.344;2023-08-01T05:56:49;5.13;;;2.80;;
12218;SDS011;6172;42.646;23.344;2023-08-01T05:59:16;4.88;;;3.28;;
12218;SDS011;6172;42.646;23.344;2023-08-01T06:01:44;7.20;;;4.35;;
12218;SDS011;6172;42.646;23.344;2023-08-01T06:04:11;3.45;;;2.97;;
12218;SDS011;6172;42.646;23.344;2023-08-01T06:06:38;8.07;;;2.45;;
12218;SDS011;6172;42.646;23.344;2023-08-01T06:09:05;5.63;;;2.35;;
12218;SDS011;6172;42.646;23.344;2023-08-01T06:11:33;5.38;;;2.35;;
12218;SDS011;6172;42.646;23.344;2023-08-01T06:14:00;5.13;;;1.98;;
12218;SDS011;6172;42.646;23.344;2023-08-01T06:16:27;5.15;;;2.50;;
12218;SDS011;6172;42.646;23.344;2023-08-01T06:18:53;5.30;;;2.38;;
12218;SDS011;6172;42.646;23.344;2023-08-01T06:21:21;3.13;;;1.73;;
12218;SDS011;6172;42.646;23.344;2023-08-01T06:23:49;2.58;;;1.30;;
12218;SDS011;6172;42.646;23.344;2023-08-01T06:26:16;1.83;;;1.48;;
12218;SDS011;6172;42.646;23.344;2023-08-01T06:28:45;3.47;;;1.42;;
12218;SDS011;6172;42.646;23.344;2023-08-01T06:31:12;2.13;;;1.27;;
12218;SDS011;6172;42.646;23.344;2023-08-01T06:33:40;2.47;;;1.00;;
12218;SDS011;6172;42.646;23.344;2023-08-01T06:36:07;1.40;;;1.00;;
12218;SDS011;6172;42.646;23.344;2023-08-01T06:38:34;1.30;;;1.20;;
12218;SDS011;6172;42.646;23.344;2023-08-01T06:41:01;5.40;;;1.73;;
12218;SDS011;6172;42.646;23.344;2023-08-01T06:43:28;3.33;;;1.33;;
12218;SDS011;6172;42.646;23.344;2023-08-01T06:45:56;2.25;;;1.60;;
12218;SDS011;6172;42.646;23.344;2023-08-01T06:48:24;3.28;;;1.52;;
12218;SDS011;6172;42.646;23.344;2023-08-01T06:50:52;3.72;;;1.58;;
12218;SDS011;6172;42.646;23.344;2023-08-01T06:53:19;2.55;;;1.27;;
12218;SDS011;6172;42.646;23.344;2023-08-01T06:55:46;4.10;;;1.60;;
12218;SDS011;6172;42.646;23.344;2023-08-01T06:58:15;2.42;;;1.83;;
12218;SDS011;6172;42.646;23.344;2023-08-01T07:00:43;2.45;;;1.50;;
12218;SDS011;6172;42.646;23.344;2023-08-01T07:03:12;3.55;;;1.60;;
12218;SDS011;6172;42.646;23.344;2023-08-01T07:05:39;4.45;;;1.40;;
12218;SDS011;6172;42.646;23.344;2023-08-01T07:08:06;1.60;;;1.50;;
12218;SDS011;6172;42.646;23.344;2023-08-01T07:10:34;2.00;;;1.67;;
12218;SDS011;6172;42.646;23.344;2023-08-01T07:13:01;3.55;;;2.20;;
12218;SDS011;6172;42.646;23.344;2023-08-01T07:15:29;1.98;;;1.77;;
12218;SDS011;6172;42.646;23.344;2023-08-01T07:17:56;2.97;;;1.80;;
12218;SDS011;6172;42.646;23.344;2023-08-01T07:20:24;2.40;;;1.60;;
12218;SDS011;6172;42.646;23.344;2023-08-01T07:22:51;10.65;;;2.88;;
12218;SDS011;6172;42.646;23.344;2023-08-01T07:25:18;8.00;;;2.60;;
12218;SDS011;6172;42.646;23.344;2023-08-01T07:27:47;2.33;;;1.50;;
12218;SDS011;6172;42.646;23.344;2023-08-01T07:30:14;2.58;;;1.98;;
12218;SDS011;6172;42.646;23.344;2023-08-01T07:32:41;2.67;;;1.33;;
12218;SDS011;6172;42.646;23.344;2023-08-01T07:35:08;2.88;;;1.60;;
12218;SDS011;6172;42.646;23.344;2023-08-01T07:37:37;4.35;;;1.67;;
12218;SDS011;6172;42.646;23.344;2023-08-01T07:40:05;3.05;;;1.25;;
12218;SDS011;6172;42.646;23.344;2023-08-01T07:42:33;4.63;;;1.90;;
12218;SDS011;6172;42.646;23.344;2023-08-01T07:45:01;3.60;;;2.30;;
12218;SDS011;6172;42.646;23.344;2023-08-01T07:47:28;3.63;;;2.45;;
12218;SDS011;6172;42.646;23.344;2023-08-01T07:49:55;5.88;;;2.47;;
12218;SDS011;6172;42.646;23.344;2023-08-01T07:52:22;4.97;;;2.42;;
12218;SDS011;6172;42.646;23.344;2023-08-01T07:54:50;3.60;;;2.80;;
12218;SDS011;6172;42.646;23.344;2023-08-01T07:57:18;3.92;;;2.05;;
12218;SDS011;6172;42.646;23.344;2023-08-01T07:59:45;2.58;;;2.08;;
12218;SDS011;6172;42.646;23.344;2023-08-01T08:02:12;2.63;;;2.40;;
12218;SDS011;6172;42.646;23.344;2023-08-01T08:04:39;3.97;;;2.42;;
12218;SDS011;6172;42.646;23.344;2023-08-01T08:07:06;3.63;;;2.20;;
12218;SDS011;6172;42.646;23.344;2023-08-01T08:09:33;3.75;;;1.90;;
12218;SDS011;6172;42.646;23.344;2023-08-01T08:12:01;5.10;;;2.72;;
12218;SDS011;6172;42.646;23.344;2023-08-01T08:14:29;5.47;;;3.10;;
12218;SDS011;6172;42.646;23.344;2023-08-01T08:16:56;8.05;;;3.00;;
12218;SDS011;6172;42.646;23.344;2023-08-01T08:19:22;4.78;;;2.88;;
12218;SDS011;6172;42.646;23.344;2023-08-01T08:21:50;3.40;;;2.78;;
12218;SDS011;6172;42.646;23.344;2023-08-01T08:24:17;5.30;;;2.38;;
12218;SDS011;6172;42.646;23.344;2023-08-01T08:26:44;2.80;;;2.45;;
12218;SDS011;6172;42.646;23.344;2023-08-01T08:29:12;4.57;;;2.70;;
12218;SDS011;6172;42.646;23.344;2023-08-01T08:31:42;4.88;;;2.80;;
12218;SDS011;6172;42.646;23.344;2023-08-01T08:34:09;3.83;;;2.90;;
12218;SDS011;6172;42.646;23.344;2023-08-01T08:36:36;4.10;;;2.65;;
12218;SDS011;6172;42.646;23.344;2023-08-01T08:39:03;3.17;;;2.70;;
12218;SDS011;6172;42.646;23.344;2023-08-01T08:41:30;3.80;;;2.35;;
12218;SDS011;6172;42.646;23.344;2023-08-01T08:44:02;6.47;;;2.60;;
12218;SDS011;6172;42.646;23.344;2023-08-01T08:46:41;3.38;;;2.45;;
12218;SDS011;6172;42.646;23.344;2023-08-01T08:49:09;3.10;;;2.50;;
12218;SDS011;6172;42.646;23.344;2023-08-01T08:51:36;2.55;;;2.35;;
12218;SDS011;6172;42.646;23.344;2023-08-01T08:54:04;3.00;;;2.25;;
12218;SDS011;6172;42.646;23.344;2023-08-01T08:56:33;2.60;;;2.40;;
12218;SDS011;6172;42.646;23.344;2023-08-01T08:59:00;2.65;;;2.40;;
12218;SDS011;6172;42.646;23.344;2023-08-01T09:01:28;3.95;;;2.50;;
12218;SDS011;6172;42.646;23.344;2023-08-01T09:03:57;5.13;;;2.85;;
12218;SDS011;6172;42.646;23.344;2023-08-01T09:06:25;5.07;;;2.80;;
12218;SDS011;6172;42.646;23.344;2023-08-01T09:09:01;6.05;;;2.55;;
12218;SDS011;6172;42.646;23.344;2023-08-01T09:11:35;3.55;;;2.75;;
12218;SDS011;6172;42.646;23.344;2023-08-01T09:14:07;3.78;;;2.35;;
12218;SDS011;6172;42.646;23.344;2023-08-01T09:16:36;4.72;;;2.40;;
12218;SDS011;6172;42.646;23.344;2023-08-01T09:19:05;4.38;;;2.15;;
12218;SDS011;6172;42.646;23.344;2023-08-01T09:21:33;3.75;;;2.10;;
12218;SDS011;6172;42.646;23.344;2023-08-01T09:24:07;2.60;;;2.40;;
12218;SDS011;6172;42.646;23.344;2023-08-01T09:26:35;3.92;;;2.58;;
12218;SDS011;6172;42.646;23.344;2023-08-01T09:29:03;2.88;;;2.67;;
12218;SDS011;6172;42.646;23.344;2023-08-01T09:31:30;7.50;;;4.43;;
12218;SDS011;6172;42.646;23.344;2023-08-01T09:33:59;2.75;;;2.45;;
12218;SDS011;6172;42.646;23.344;2023-08-01T09:36:32;2.90;;;2.70;;
12218;SDS011;6172;42.646;23.344;2023-08-01T09:39:00;3.38;;;2.25;;
12218;SDS011;6172;42.646;23.344;2023-08-01T09:41:29;5.18;;;2.42;;
12218;SDS011;6172;42.646;23.344;2023-08-01T09:43:56;3.58;;;2.58;;
12218;SDS011;6172;42.646;23.344;2023-08-01T09:46:23;2.47;;;2.28;;
12218;SDS011;6172;42.646;23.344;2023-08-01T09:48:50;3.05;;;2.70;;
12218;SDS011;6172;42.646;23.344;2023-08-01T09:51:18;3.78;;;2.92;;
12218;SDS011;6172;42.646;23.344;2023-08-01T09:53:50;4.45;;;2.88;;
12218;SDS011;6172;42.646;23.344;2023-08-01T09:56:20;2.70;;;2.50;;
12218;SDS011;6172;42.646;23.344;2023-08-01T09:58:49;2.83;;;2.33;;
12218;SDS011;6172;42.646;23.344;2023-08-01T10:01:17;3.50;;;2.63;;
12218;SDS011;6172;42.646;23.344;2023-08-01T10:03:49;2.72;;;2.47;;
12218;SDS011;6172;42.646;23.344;2023-08-01T10:06:17;4.82;;;2.97;;
12218;SDS011;6172;42.646;23.344;2023-08-01T10:08:45;2.50;;;2.30;;
12218;SDS011;6172;42.646;23.344;2023-08-01T10:11:14;3.42;;;2.58;;
12218;SDS011;6172;42.646;23.344;2023-08-01T10:13:43;4.80;;;3.13;;
12218;SDS011;6172;42.646;23.344;2023-08-01T10:16:11;3.78;;;2.40;;
12218;SDS011;6172;42.646;23.344;2023-08-01T10:18:38;3.63;;;2.60;;
12218;SDS011;6172;42.646;23.344;2023-08-01T10:21:06;3.53;;;2.35;;
12218;SDS011;6172;42.646;23.344;2023-08-01T10:23:34;3.83;;;3.05;;
12218;SDS011;6172;42.646;23.344;2023-08-01T10:26:02;3.80;;;3.38;;
12218;SDS011;6172;42.646;23.344;2023-08-01T10:28:33;5.68;;;2.95;;
12218;SDS011;6172;42.646;23.344;2023-08-01T10:31:10;5.20;;;2.50;;
12218;SDS011;6172;42.646;23.344;2023-08-01T10:33:39;7.40;;;3.10;;
12218;SDS011;6172;42.646;23.344;2023-08-01T10:36:14;8.13;;;2.85;;
12218;SDS011;6172;42.646;23.344;2023-08-01T10:38:49;4.65;;;2.47;;
12218;SDS011;6172;42.646;23.344;2023-08-01T10:41:21;4.68;;;3.10;;
12218;SDS011;6172;42.646;23.344;2023-08-01T10:43:52;4.70;;;2.63;;
12218;SDS011;6172;42.646;23.344;2023-08-01T10:46:36;3.08;;;2.78;;
12218;SDS011;6172;42.646;23.344;2023-08-01T10:49:11;5.78;;;3.05;;
12218;SDS011;6172;42.646;23.344;2023-08-01T10:51:38;3.40;;;2.75;;
12218;SDS011;6172;42.646;23.344;2023-08-01T10:54:05;5.03;;;3.03;;
12218;SDS011;6172;42.646;23.344;2023-08-01T10:56:32;3.28;;;2.97;;
12218;SDS011;6172;42.646;23.344;2023-08-01T10:59:01;5.78;;;2.97;;
12218;SDS011;6172;42.646;23.344;2023-08-01T11:01:41;8.55;;;2.90;;
12218;SDS011;6172;42.646;23.344;2023-08-01T11:04:13;8.57;;;3.42;;
12218;SDS011;6172;42.646;23.344;2023-08-01T11:06:44;2.83;;;2.30;;
12218;SDS011;6172;42.646;23.344;2023-08-01T11:09:18;4.47;;;2.65;;
12218;SDS011;6172;42.646;23.344;2023-08-01T11:11:47;2.88;;;2.53;;
12218;SDS011;6172;42.646;23.344;2023-08-01T11:14:17;3.95;;;2.33;;
12218;SDS011;6172;42.646;23.344;2023-08-01T11:16:46;3.83;;;2.60;;
12218;SDS011;6172;42.646;23.344;2023-08-01T11:19:19;2.50;;;2.30;;
12218;SDS011;6172;42.646;23.344;2023-08-01T11:21:47;3.25;;;2.63;;
12218;SDS011;6172;42.646;23.344;2023-08-01T11:24:15;4.25;;;2.20;;
12218;SDS011;6172;42.646;23.344;2023-08-01T11:26:42;2.58;;;2.35;;
12218;SDS011;6172;42.646;23.344;2023-08-01T11:29:10;6.05;;;2.80;;
12218;SDS011;6172;42.646;23.344;2023-08-01T11:31:39;3.33;;;2.72;;
12218;SDS011;6172;42.646;23.344;2023-08-01T11:34:07;3.40;;;2.83;;
12218;SDS011;6172;42.646;23.344;2023-08-01T11:36:35;4.65;;;2.80;;
12218;SDS011;6172;42.646;23.344;2023-08-01T11:39:03;4.13;;;2.47;;
12218;SDS011;6172;42.646;23.344;2023-08-01T11:41:30;3.25;;;2.80;;
12218;SDS011;6172;42.646;23.344;2023-08-01T11:44:01;2.47;;;2.28;;
12218;SDS011;6172;42.646;23.344;2023-08-01T11:46:33;4.57;;;2.35;;
12218;SDS011;6172;42.646;23.344;2023-08-01T11:49:02;2.38;;;2.17;;
12218;SDS011;6172;42.646;23.344;2023-08-01T11:51:29;4.25;;;2.70;;
12218;SDS011;6172;42.646;23.344;2023-08-01T11:53:59;4.93;;;2.72;;
12218;SDS011;6172;42.646;23.344;2023-08-01T11:56:27;3.10;;;2.47;;
12218;SDS011;6172;42.646;23.344;2023-08-01T11:58:54;3.75;;;2.83;;
12218;SDS011;6172;42.646;23.344;2023-08-01T12:01:21;2.25;;;2.15;;
12218;SDS011;6172;42.646;23.344;2023-08-01T12:03:49;5.15;;;2.42;;
12218;SDS011;6172;42.646;23.344;2023-08-01T12:06:18;2.42;;;2.33;;
12218;SDS011;6172;42.646;23.344;2023-08-01T12:08:47;4.10;;;2.50;;
12218;SDS011;6172;42.646;23.344;2023-08-01T12:11:18;4.15;;;2.25;;
12218;SDS011;6172;42.646;23.344;2023-08-01T12:13:46;3.50;;;2.80;;
12218;SDS011;6172;42.646;23.344;2023-08-01T12:16:13;3.50;;;3.15;;
12218;SDS011;6172;42.646;23.344;2023-08-01T12:18:45;2.78;;;2.58;;
12218;SDS011;6172;42.646;23.344;2023-08-01T12:21:12;3.25;;;2.95;;
12218;SDS011;6172;42.646;23.344;2023-08-01T12:23:40;2.90;;;2.70;;
12218;SDS011;6172;42.646;23.344;2023-08-01T12:26:07;2.50;;;2.33;;
12218;SDS011;6172;42.646;23.344;2023-08-01T12:28:34;2.65;;;2.45;;
12218;SDS011;6172;42.646;23.344;2023-08-01T12:31:01;2.40;;;2.15;;
12218;SDS011;6172;42.646;23.344;2023-08-01T12:33:28;3.25;;;2.20;;
12218;SDS011;6172;42.646;23.344;2023-08-01T12:35:56;2.58;;;2.38;;
12218;SDS011;6172;42.646;23.344;2023-08-01T12:38:22;2.38;;;2.13;;
12218;SDS011;6172;42.646;23.344;2023-08-01T12:40:50;2.63;;;2.28;;
12218;SDS011;6172;42.646;23.344;2023-08-01T12:43:17;2.92;;;1.98;;
12218;SDS011;6172;42.646;23.344;2023-08-01T12:45:44;3.28;;;2.35;;
12218;SDS011;6172;42.646;23.344;2023-08-01T12:48:13;3.65;;;2.10;;
12218;SDS011;6172;42.646;23.344;2023-08-01T12:50:43;4.75;;;2.58;;
12218;SDS011;6172;42.646;23.344;2023-08-01T12:53:10;4.85;;;2.72;;
12218;SDS011;6172;42.646;23.344;2023-08-01T12:55:37;6.35;;;2.80;;
12218;SDS011;6172;42.646;23.344;2023-08-01T12:58:06;6.55;;;2.67;;
12218;SDS011;6172;42.646;23.344;2023-08-01T13:00:33;3.42;;;2.50;;
12218;SDS011;6172;42.646;23.344;2023-08-01T13:03:00;2.72;;;2.38;;
12218;SDS011;6172;42.646;23.344;2023-08-01T13:05:27;3.28;;;2.22;;
12218;SDS011;6172;42.646;23.344;2023-08-01T13:07:53;3.05;;;2.45;;
12218;SDS011;6172;42.646;23.344;2023-08-01T13:10:20;4.20;;;1.98;;
12218;SDS011;6172;42.646;23.344;2023-08-01T13:12:47;3.22;;;2.35;;
12218;SDS011;6172;42.646;23.344;2023-08-01T13:15:15;2.85;;;2.30;;
12218;SDS011;6172;42.646;23.344;2023-08-01T13:17:42;2.53;;;2.25;;
12218;SDS011;6172;42.646;23.344;2023-08-01T13:20:09;3.03;;;2.00;;
12218;SDS011;6172;42.646;23.344;2023-08-01T13:22:36;2.53;;;2.33;;
12218;SDS011;6172;42.646;23.344;2023-08-01T13:25:03;2.78;;;2.50;;
12218;SDS011;6172;42.646;23.344;2023-08-01T13:27:31;3.58;;;2.13;;
12218;SDS011;6172;42.646;23.344;2023-08-01T13:30:00;2.30;;;1.85;;
12218;SDS011;6172;42.646;23.344;2023-08-01T13:32:29;2.63;;;2.22;;
12218;SDS011;6172;42.646;23.344;2023-08-01T13:34:56;2.22;;;1.98;;
12218;SDS011;6172;42.646;23.344;2023-08-01T13:37:22;2.53;;;1.90;;
12218;SDS011;6172;42.646;23.344;2023-08-01T13:39:49;4.72;;;2.22;;
12218;SDS011;6172;42.646;23.344;2023-08-01T13:42:16;4.45;;;2.00;;
12218;SDS011;6172;42.646;23.344;2023-08-01T13:44:43;4.18;;;2.70;;
12218;SDS011;6172;42.646;23.344;2023-08-01T13:47:10;4.55;;;1.80;;
12218;SDS011;6172;42.646;23.344;2023-08-01T13:49:38;2.75;;;2.05;;
12218;SDS011;6172;42.646;23.344;2023-08-01T13:52:05;2.25;;;1.60;;
12218;SDS011;6172;42.646;23.344;2023-08-01T13:54:32;3.50;;;1.90;;
12218;SDS011;6172;42.646;23.344;2023-08-01T13:56:59;3.38;;;1.95;;
12218;SDS011;6172;42.646;23.344;2023-08-01T13:59:26;4.38;;;1.90;;
12218;SDS011;6172;42.646;23.344;2023-08-01T14:01:53;4.63;;;2.03;;
12218;SDS011;6172;42.646;23.344;2023-08-01T14:04:20;4.35;;;2.10;;
12218;SDS011;6172;42.646;23.344;2023-08-01T14:06:48;5.22;;;2.33;;
12218;SDS011;6172;42.646;23.344;2023-08-01T14:09:15;3.78;;;2.10;;
12218;SDS011;6172;42.646;23.344;2023-08-01T14:11:42;4.05;;;1.80;;
12218;SDS011;6172;42.646;23.344;2023-08-01T14:14:09;2.30;;;1.75;;
12218;SDS011;6172;42.646;23.344;2023-08-01T14:16:37;4.75;;;2.30;;
12218;SDS011;6172;42.646;23.344;2023-08-01T14:19:03;2.88;;;2.17;;
12218;SDS011;6172;42.646;23.344;2023-08-01T14:21:33;4.03;;;1.77;;
12218;SDS011;6172;42.646;23.344;2023-08-01T14:24:01;1.90;;;1.80;;
12218;SDS011;6172;42.646;23.344;2023-08-01T14:26:28;3.05;;;2.08;;
12218;SDS011;6172;42.646;23.344;2023-08-01T14:28:55;3.08;;;1.83;;
12218;SDS011;6172;42.646;23.344;2023-08-01T14:31:22;3.53;;;1.85;;
12218;SDS011;6172;42.646;23.344;2023-08-01T14:33:49;1.90;;;1.80;;
12218;SDS011;6172;42.646;23.344;2023-08-01T14:36:16;2.20;;;1.80;;
12218;SDS011;6172;42.646;23.344;2023-08-01T14:38:42;1.85;;;1.55;;
12218;SDS011;6172;42.646;23.344;2023-08-01T14:41:11;3.13;;;2.22;;
12218;SDS011;6172;42.646;23.344;2023-08-01T14:43:40;3.90;;;1.95;;
12218;SDS011;6172;42.646;23.344;2023-08-01T14:46:07;3.83;;;2.00;;
12218;SDS011;6172;42.646;23.344;2023-08-01T14:48:33;5.18;;;2.42;;
12218;SDS011;6172;42.646;23.344;2023-08-01T14:51:00;5.50;;;2.35;;
12218;SDS011;6172;42.646;23.344;2023-08-01T14:53:31;3.33;;;2.30;;